Time;durP1;ratioP1;P1;durP2;ratioP2;P2;SDS_P1;SDS_P2;PMS_P1;PMS_P2;Temp;Humidity;BMP_temperature;BMP_pressure;BME280_temperature;BME280_humidity;BME280_pressure;Samples;Min_cycle;Max_cycle;Signal;HPM_P1;HPM_P2
2024/02/03 00:01:38;;;;;;;5.53;3.17;;;;;;;3.38;100.00;100088.00;5038515;28;20036;-76
2024/02/03 00:04:03;;;;;;;5.65;2.80;;;;;;;3.80;100.00;100109.50;5030765;28;20316;-75
2024/02/03 00:06:28;;;;;;;4.68;2.47;;;;;;;4.02;100.00;100095.16;5034424;28;20344;-76
2024/02/03 00:08:54;;;;;;;4.07;2.50;;;;;;;4.17;100.00;100079.63;5037020;28;20029;-76
2024/02/03 00:11:19;;;;;;;6.97;2.78;;;;;;;4.47;100.00;100105.59;5025186;28;20045;-76
2024/02/03 00:13:44;;;;;;;3.58;2.10;;;;;;;4.52;100.00;100108.72;5032571;28;20032;-75
2024/02/03 00:16:10;;;;;;;3.33;2.40;;;;;;;4.64;100.00;100109.50;5041418;28;20025;-76
2024/02/03 00:18:35;;;;;;;5.40;3.10;;;;;;;4.63;100.00;100097.06;5036230;28;20087;-76
2024/02/03 00:21:02;;;;;;;10.35;4.25;;;;;;;4.45;100.00;100110.22;5039233;28;20043;-76
2024/02/03 00:23:27;;;;;;;6.22;2.88;;;;;;;4.49;100.00;100106.31;5046387;28;20030;-77
2024/02/03 00:25:52;;;;;;;8.20;4.15;;;;;;;4.29;100.00;100099.13;5042401;28;20025;-76
2024/02/03 00:28:18;;;;;;;6.00;3.10;;;;;;;4.21;100.00;100090.91;5034262;28;20022;-76
2024/02/03 00:30:43;;;;;;;7.88;3.28;;;;;;;3.99;100.00;100098.09;5030585;28;20030;-77
2024/02/03 00:33:08;;;;;;;4.97;2.70;;;;;;;4.00;100.00;100104.28;5032303;28;20064;-75
2024/02/03 00:35:33;;;;;;;6.85;2.75;;;;;;;3.89;100.00;100094.50;5045005;28;20037;-75
2024/02/03 00:37:59;;;;;;;5.80;2.78;;;;;;;4.10;100.00;100121.28;5036809;28;20052;-75
2024/02/03 00:40:24;;;;;;;4.65;2.70;;;;;;;3.95;100.00;100093.97;5040731;28;20378;-76
2024/02/03 00:42:50;;;;;;;4.32;2.65;;;;;;;4.01;100.00;100112.22;5041954;28;20017;-76
2024/02/03 00:45:16;;;;;;;6.22;2.83;;;;;;;4.30;100.00;100131.16;5050712;28;20023;-75
2024/02/03 00:47:41;;;;;;;4.60;2.30;;;;;;;4.52;100.00;100132.00;5038982;28;20121;-76
2024/02/03 00:50:14;;;;;;;5.05;2.65;;;;;;;4.54;100.00;100117.50;5036746;28;20014;-75
2024/02/03 00:52:39;;;;;;;4.53;2.35;;;;;;;4.69;100.00;100106.41;5044860;28;20033;-75
2024/02/03 00:55:04;;;;;;;5.05;2.83;;;;;;;5.04;100.00;100114.06;5039854;28;20366;-76
2024/02/03 00:57:30;;;;;;;5.95;2.83;;;;;;;5.33;100.00;100115.97;5032694;28;20265;-76
2024/02/03 00:59:55;;;;;;;4.93;2.92;;;;;;;5.31;100.00;100134.88;5034981;28;20025;-75
2024/02/03 01:02:20;;;;;;;9.07;2.97;;;;;;;5.02;100.00;100122.22;5035710;28;20048;-77
2024/02/03 01:04:46;;;;;;;6.80;3.05;;;;;;;4.80;100.00;100109.03;5029545;28;20014;-77
2024/02/03 01:07:11;;;;;;;5.90;3.08;;;;;;;4.90;100.00;100134.06;5033324;28;20392;-77
2024/02/03 01:09:36;;;;;;;6.28;3.22;;;;;;;5.19;100.00;100138.69;5016731;28;20076;-77
2024/02/03 01:12:02;;;;;;;6.57;3.50;;;;;;;5.29;100.00;100136.84;5039946;28;20328;-77
2024/02/03 01:14:27;;;;;;;6.15;3.30;;;;;;;5.25;100.00;100108.63;5042068;28;20071;-77
2024/02/03 01:16:53;;;;;;;5.22;3.28;;;;;;;5.54;100.00;100137.34;5038077;28;20056;-77
2024/02/03 01:19:18;;;;;;;7.35;3.65;;;;;;;5.51;100.00;100129.59;5043198;28;20017;-78
2024/02/03 01:21:43;;;;;;;5.75;3.58;;;;;;;5.64;100.00;100141.75;5037619;28;20024;-77
2024/02/03 01:24:08;;;;;;;7.47;4.07;;;;;;;5.58;100.00;100109.22;5042870;28;20105;-78
2024/02/03 01:26:34;;;;;;;6.13;3.65;;;;;;;5.54;100.00;100108.69;5042348;28;20044;-77
2024/02/03 01:28:59;;;;;;;5.78;3.58;;;;;;;5.56;100.00;100114.75;5040745;28;20025;-77
2024/02/03 01:31:24;;;;;;;6.93;3.88;;;;;;;5.41;100.00;100097.34;5041852;28;20025;-77
2024/02/03 01:33:50;;;;;;;7.97;4.53;;;;;;;5.61;100.00;100136.66;5039619;28;20021;-77
2024/02/03 01:36:15;;;;;;;6.30;3.65;;;;;;;5.40;100.00;100109.09;5040259;28;20067;-76
2024/02/03 01:38:43;;;;;;;7.10;4.13;;;;;;;5.51;100.00;100134.97;5044469;28;20021;-76
2024/02/03 01:41:09;;;;;;;7.90;4.15;;;;;;;5.59;100.00;100135.09;5043755;28;20025;-76
2024/02/03 01:43:34;;;;;;;8.73;4.80;;;;;;;5.65;100.00;100123.81;5041905;28;20025;-77
2024/02/03 01:45:59;;;;;;;8.32;4.50;;;;;;;5.64;100.00;100131.00;5040355;28;20186;-77
2024/02/03 01:48:25;;;;;;;6.85;3.90;;;;;;;5.62;100.00;100137.50;5038415;28;20021;-76
2024/02/03 01:50:52;;;;;;;6.25;3.70;;;;;;;5.36;100.00;100110.34;5029987;28;20021;-76
2024/02/03 01:53:18;;;;;;;6.72;4.15;;;;;;;5.36;100.00;100113.00;5030495;28;20052;-76
2024/02/03 01:55:44;;;;;;;13.18;4.93;;;;;;;5.47;100.00;100121.78;5041173;28;20021;-77
2024/02/03 01:58:09;;;;;;;9.43;4.72;;;;;;;5.52;100.00;100115.16;5037590;28;20021;-77
2024/02/03 02:00:35;;;;;;;9.77;4.50;;;;;;;5.30;100.00;100090.28;5035626;28;20032;-77
2024/02/03 02:03:00;;;;;;;8.95;4.60;;;;;;;5.55;100.00;100131.00;5030964;28;20056;-76
2024/02/03 02:05:25;;;;;;;8.52;4.43;;;;;;;5.55;100.00;100117.56;5036807;28;20025;-76
2024/02/03 02:07:51;;;;;;;10.85;5.10;;;;;;;5.47;100.00;100110.22;5038393;28;20220;-76
2024/02/03 02:10:16;;;;;;;8.45;4.82;;;;;;;5.49;100.00;100127.88;5038687;28;20053;-76
2024/02/03 02:12:42;;;;;;;9.63;4.60;;;;;;;5.57;100.00;100135.22;5042645;28;20030;-76
2024/02/03 02:15:08;;;;;;;12.55;4.55;;;;;;;5.61;100.00;100135.81;5040515;28;20328;-76
2024/02/03 02:17:36;;;;;;;7.32;4.55;;;;;;;5.66;100.00;100138.94;5055189;28;20032;-76
2024/02/03 02:20:06;;;;;;;8.18;4.90;;;;;;;5.71;100.00;100115.19;5047542;28;20033;-76
2024/02/03 02:22:36;;;;;;;9.23;4.75;;;;;;;5.82;100.00;100131.19;5040296;28;20029;-76
2024/02/03 02:25:02;;;;;;;9.77;5.20;;;;;;;5.86;100.00;100113.78;5058445;28;20017;-76
2024/02/03 02:27:28;;;;;;;8.70;4.68;;;;;;;5.94;100.00;100094.31;5047631;28;20351;-76
2024/02/03 02:29:53;;;;;;;8.18;4.50;;;;;;;6.23;100.00;100099.66;5051176;28;20029;-76
2024/02/03 02:32:18;;;;;;;8.55;4.70;;;;;;;6.41;100.00;100117.75;5039467;28;20061;-76
2024/02/03 02:34:44;;;;;;;8.50;4.35;;;;;;;6.41;100.00;100098.94;5032635;28;20033;-78
2024/02/03 02:37:09;;;;;;;8.98;4.45;;;;;;;6.48;100.00;100106.28;5041778;28;20343;-76
2024/02/03 02:39:34;;;;;;;8.20;4.40;;;;;;;6.42;100.00;100087.16;5035195;28;20030;-76
2024/02/03 02:42:00;;;;;;;7.95;4.10;;;;;;;6.61;100.00;100099.75;5034320;28;20041;-76
2024/02/03 02:44:25;;;;;;;10.70;4.40;;;;;;;6.56;100.00;100078.66;5040760;28;20092;-76
2024/02/03 02:46:50;;;;;;;8.82;4.40;;;;;;;6.76;100.00;100096.44;5042990;28;20022;-76
2024/02/03 02:49:15;;;;;;;10.82;4.78;;;;;;;6.72;100.00;100091.50;5030531;28;20041;-76
2024/02/03 02:51:41;;;;;;;9.23;4.35;;;;;;;6.72;100.00;100094.19;5040814;28;20074;-76
2024/02/03 02:54:06;;;;;;;7.68;4.95;;;;;;;6.73;100.00;100088.66;5042705;28;20022;-76
2024/02/03 02:56:31;;;;;;;9.43;4.85;;;;;;;6.76;100.00;100087.53;5042278;28;20036;-77
2024/02/03 02:58:57;;;;;;;7.15;4.18;;;;;;;6.86;100.00;100107.13;5045681;28;20464;-77
2024/02/03 03:01:22;;;;;;;7.60;4.20;;;;;;;6.89;100.00;100111.38;5041696;28;20036;-77
2024/02/03 03:03:50;;;;;;;7.93;4.63;;;;;;;6.72;100.00;100084.25;5049430;28;20216;-77
2024/02/03 03:06:15;;;;;;;9.95;4.72;;;;;;;6.88;100.00;100104.31;5043123;28;20025;-78
2024/02/03 03:08:41;;;;;;;7.75;4.35;;;;;;;6.93;100.00;100096.66;5044756;28;20084;-77
2024/02/03 03:11:06;;;;;;;8.05;4.68;;;;;;;7.00;100.00;100093.22;5044164;28;20026;-78
2024/02/03 03:13:31;;;;;;;8.55;5.15;;;;;;;6.78;100.00;100064.00;5043998;28;20051;-78
2024/02/03 03:15:57;;;;;;;8.85;5.20;;;;;;;6.73;100.00;100048.31;5037934;28;20128;-78
2024/02/03 03:18:22;;;;;;;8.00;4.75;;;;;;;6.91;100.00;100087.88;5043254;28;20025;-78
2024/02/03 03:20:47;;;;;;;10.77;5.30;;;;;;;7.01;100.00;100096.75;5044949;28;20029;-78
2024/02/03 03:23:13;;;;;;;9.40;5.95;;;;;;;7.00;100.00;100103.13;5036251;28;20032;-77
2024/02/03 03:25:38;;;;;;;9.90;4.90;;;;;;;6.96;100.00;100088.28;5040749;28;20354;-77
2024/02/03 03:28:04;;;;;;;9.27;4.88;;;;;;;6.99;100.00;100096.03;5035967;28;20037;-77
2024/02/03 03:30:29;;;;;;;8.18;5.07;;;;;;;6.99;100.00;100091.50;5058606;28;20025;-77
2024/02/03 03:32:55;;;;;;;6.72;4.57;;;;;;;7.00;100.00;100090.53;5044055;28;20040;-77
2024/02/03 03:35:20;;;;;;;9.55;5.15;;;;;;;6.80;100.00;100056.63;5037707;28;20029;-77
2024/02/03 03:37:46;;;;;;;8.65;4.82;;;;;;;7.05;100.00;100087.41;5035684;28;20032;-77
2024/02/03 03:40:11;;;;;;;7.70;4.70;;;;;;;7.15;100.00;100093.56;5038972;28;20049;-77
2024/02/03 03:42:37;;;;;;;8.25;4.63;;;;;;;6.85;100.00;100045.44;5045417;28;20251;-77
2024/02/03 03:45:04;;;;;;;8.07;4.72;;;;;;;7.11;100.00;100084.09;5038138;28;20332;-77
2024/02/03 03:47:30;;;;;;;8.00;4.82;;;;;;;7.02;100.00;100069.69;5038016;28;20086;-79
2024/02/03 03:49:55;;;;;;;10.23;4.93;;;;;;;7.16;100.00;100084.50;5040509;28;20081;-76
2024/02/03 03:52:21;;;;;;;9.00;4.70;;;;;;;7.09;100.00;100083.38;5037666;28;20025;-76
2024/02/03 03:54:46;;;;;;;8.48;5.32;;;;;;;7.09;100.00;100091.47;5038439;28;20049;-78
2024/02/03 03:57:11;;;;;;;9.23;5.10;;;;;;;7.14;100.00;100086.47;5034810;28;20033;-76
2024/02/03 04:02:14;;;;;;;8.80;4.72;;;;;;;7.17;100.00;100098.78;5058088;23;20063;-55
2024/02/03 04:04:39;;;;;;;8.40;4.60;;;;;;;7.19;100.00;100097.66;5043500;28;20549;-55
2024/02/03 04:07:05;;;;;;;8.93;4.78;;;;;;;7.24;100.00;100092.66;5028864;28;20037;-55
2024/02/03 04:09:31;;;;;;;7.53;4.32;;;;;;;7.22;100.00;100102.72;5022271;28;20045;-55
2024/02/03 04:11:57;;;;;;;7.45;4.68;;;;;;;7.18;100.00;100100.50;5023466;28;20021;-54
2024/02/03 04:14:22;;;;;;;6.32;4.00;;;;;;;7.19;100.00;100091.41;5027602;28;20025;-54
2024/02/03 04:27:18;;;;;;;7.65;4.32;;;;;;;7.19;100.00;100111.09;5126655;23;20126;-55
2024/02/03 04:29:44;;;;;;;7.45;4.47;;;;;;;7.13;100.00;100106.31;5040681;28;20495;-54
2024/02/03 04:32:11;;;;;;;7.97;4.35;;;;;;;7.19;100.00;100112.97;5043950;28;20519;-54
2024/02/03 04:34:36;;;;;;;9.70;4.78;;;;;;;7.23;100.00;100109.81;5036464;28;20388;-54
2024/02/03 04:37:01;;;;;;;7.40;4.60;;;;;;;7.25;100.00;100105.09;5029686;28;20033;-54
2024/02/03 04:39:27;;;;;;;6.82;4.40;;;;;;;7.23;100.00;100104.44;5029781;28;20032;-54
2024/02/03 04:41:53;;;;;;;9.43;5.07;;;;;;;7.25;100.00;100101.56;5030893;28;20061;-54
2024/02/03 04:44:18;;;;;;;9.35;4.55;;;;;;;7.17;100.00;100099.63;5031326;28;20503;-54
2024/02/03 04:46:44;;;;;;;6.93;4.30;;;;;;;7.29;100.00;100096.75;5032156;28;20022;-54
2024/02/03 04:49:09;;;;;;;9.27;5.28;;;;;;;7.28;100.00;100106.66;5031327;28;20025;-54
2024/02/03 04:51:34;;;;;;;7.43;4.50;;;;;;;7.33;100.00;100106.22;5035490;28;20033;-54
2024/02/03 04:54:00;;;;;;;7.50;4.93;;;;;;;7.27;100.00;100094.22;5031322;28;20047;-54
2024/02/03 04:56:25;;;;;;;8.57;5.00;;;;;;;7.27;100.00;100093.38;5031522;28;20055;-54
2024/02/03 04:58:51;;;;;;;6.93;4.20;;;;;;;7.24;100.00;100100.72;5027115;28;20084;-55
2024/02/03 05:01:17;;;;;;;8.18;4.53;;;;;;;7.30;100.00;100093.06;5023497;28;20051;-54
2024/02/03 05:03:42;;;;;;;7.82;4.30;;;;;;;7.23;100.00;100098.19;5031703;28;20068;-54
2024/02/03 05:06:08;;;;;;;7.82;3.92;;;;;;;7.32;100.00;100102.69;5028260;28;20534;-54
2024/02/03 05:08:36;;;;;;;6.63;4.45;;;;;;;7.31;100.00;100094.75;5029718;28;20033;-54
2024/02/03 05:11:02;;;;;;;7.63;4.63;;;;;;;7.25;100.00;100088.97;5029245;28;20473;-54
2024/02/03 05:13:27;;;;;;;7.03;4.05;;;;;;;7.22;100.00;100100.03;5026871;28;20048;-54
2024/02/03 05:15:53;;;;;;;9.10;4.57;;;;;;;7.22;100.00;100097.34;5026339;28;20041;-54
2024/02/03 05:18:20;;;;;;;9.02;4.13;;;;;;;7.20;100.00;100090.41;5026483;28;20040;-53
2024/02/03 05:20:45;;;;;;;7.80;4.80;;;;;;;7.21;100.00;100100.19;5031149;28;20021;-54
2024/02/03 05:23:10;;;;;;;8.02;4.65;;;;;;;7.20;100.00;100102.06;5033472;28;20376;-54
2024/02/03 05:25:36;;;;;;;7.45;4.47;;;;;;;7.18;100.00;100101.34;5028620;28;20033;-53
2024/02/03 05:28:04;;;;;;;6.97;4.30;;;;;;;7.20;100.00;100114.63;5022286;28;20168;-54
2024/02/03 05:30:29;;;;;;;8.07;4.60;;;;;;;7.21;100.00;100110.97;5084875;23;20049;-61
2024/02/03 05:38:09;;;;;;;9.50;5.38;;;;;;;7.17;100.00;100115.78;5088683;22;20046;-59
2024/02/03 05:47:57;;;;;;;9.47;5.57;;;;;;;6.97;100.00;100098.06;5296206;22;20090;-60
2024/02/03 05:50:26;;;;;;;9.00;5.40;;;;;;;7.08;100.00;100122.06;5221929;22;20049;-61
2024/02/03 06:14:35;;;;;;;11.43;6.40;;;;;;;7.02;100.00;100122.66;1445550;28;20271;-60
2024/02/03 06:17:00;;;;;;;11.90;6.03;;;;;;;7.03;100.00;100124.34;5026049;28;20418;-59
2024/02/03 06:19:26;;;;;;;10.63;6.28;;;;;;;7.17;100.00;100128.41;5035443;28;20040;-59
2024/02/03 06:21:51;;;;;;;9.95;6.35;;;;;;;7.13;100.00;100137.78;5031601;28;20037;-60
2024/02/03 06:24:17;;;;;;;17.25;6.63;;;;;;;7.04;100.00;100131.44;5032229;28;20009;-59
2024/02/03 06:26:42;;;;;;;15.13;7.05;;;;;;;6.98;100.00;100129.34;5031761;28;20104;-60
2024/02/03 06:29:10;;;;;;;10.73;6.30;;;;;;;7.02;100.00;100128.03;5028396;28;20481;-60
2024/02/03 06:31:36;;;;;;;11.57;6.60;;;;;;;7.01;100.00;100129.03;5030758;28;20346;-58
2024/02/03 06:34:01;;;;;;;14.50;7.40;;;;;;;6.98;100.00;100126.66;5030611;28;20028;-59
2024/02/03 06:36:27;;;;;;;11.43;6.40;;;;;;;6.97;100.00;100133.88;5027465;28;20033;-61
2024/02/03 06:38:52;;;;;;;11.35;7.25;;;;;;;6.97;100.00;100133.88;5028787;28;20048;-60
2024/02/03 06:41:18;;;;;;;11.77;6.80;;;;;;;6.88;100.00;100128.53;5028162;28;20499;-61
2024/02/03 06:43:43;;;;;;;13.13;6.80;;;;;;;6.96;100.00;100142.91;5028787;28;20092;-59
2024/02/03 06:46:11;;;;;;;10.57;6.70;;;;;;;6.98;100.00;100145.47;5031352;28;20092;-60
2024/02/03 06:48:36;;;;;;;13.27;7.60;;;;;;;6.89;100.00;100139.16;5029312;28;20087;-60
2024/02/03 06:51:02;;;;;;;11.65;6.10;;;;;;;6.97;100.00;100147.31;5032883;28;20460;-60
2024/02/03 06:56:03;;;;;;;10.68;5.90;;;;;;;7.02;100.00;100152.25;3351898;26;20062;-60
2024/02/03 06:58:28;;;;;;;9.98;5.68;;;;;;;7.01;100.00;100153.25;5012084;28;20080;-59
2024/02/03 07:00:54;;;;;;;8.52;5.82;;;;;;;6.99;100.00;100149.84;5011464;28;20030;-59
2024/02/03 07:03:19;;;;;;;8.10;4.95;;;;;;;7.07;100.00;100147.28;5013637;28;20057;-60
2024/02/03 07:05:44;;;;;;;7.68;4.93;;;;;;;6.93;100.00;100150.44;5015620;28;20469;-60
2024/02/03 07:08:10;;;;;;;8.73;4.78;;;;;;;6.96;100.00;100147.47;5007198;28;20453;-60
2024/02/03 07:10:35;;;;;;;9.38;5.35;;;;;;;6.84;100.00;100141.44;5013365;28;20117;-59
2024/02/03 07:13:01;;;;;;;7.40;4.97;;;;;;;6.92;100.00;100149.59;5008093;28;20021;-60
2024/02/03 07:15:27;;;;;;;8.50;5.32;;;;;;;6.79;100.00;100143.72;5008846;28;20030;-61
2024/02/03 07:17:52;;;;;;;7.88;4.70;;;;;;;6.84;100.00;100145.94;5007905;28;20414;-61
2024/02/03 07:20:18;;;;;;;6.72;4.03;;;;;;;6.86;100.00;100163.63;5008937;28;20021;-59
2024/02/03 07:22:43;;;;;;;6.97;4.25;;;;;;;6.70;100.00;100160.69;5006385;28;20382;-52
2024/02/03 07:25:11;;;;;;;8.50;4.65;;;;;;;6.74;100.00;100162.13;5005610;28;20038;-52
2024/02/03 07:27:37;;;;;;;8.18;4.18;;;;;;;6.72;100.00;100169.47;5000411;28;20058;-52
2024/02/03 07:30:03;;;;;;;8.85;4.03;;;;;;;6.74;100.00;100151.38;5010936;28;20515;-52
2024/02/03 07:32:29;;;;;;;9.68;4.82;;;;;;;6.75;100.00;100158.44;5008833;28;20817;-52
2024/02/03 07:34:54;;;;;;;9.45;5.03;;;;;;;6.73;100.00;100155.91;5005854;28;20113;-52
2024/02/03 07:37:20;;;;;;;11.43;3.92;;;;;;;6.78;100.00;100161.66;5008806;28;20050;-52
2024/02/03 07:39:45;;;;;;;6.78;3.85;;;;;;;6.86;100.00;100160.94;5011348;28;20108;-52
2024/02/03 07:42:11;;;;;;;8.23;4.43;;;;;;;6.92;100.00;100164.91;5010779;28;20026;-52
2024/02/03 07:44:36;;;;;;;7.57;4.30;;;;;;;6.83;100.00;100168.47;5003496;28;20080;-52
2024/02/03 07:47:02;;;;;;;7.85;4.47;;;;;;;6.59;100.00;100156.34;5007980;28;20030;-52
2024/02/03 07:49:28;;;;;;;9.93;4.30;;;;;;;6.70;100.00;100166.09;5006402;28;20032;-52
2024/02/03 07:51:53;;;;;;;6.85;4.07;;;;;;;6.70;100.00;100166.94;5007555;28;20543;-52
2024/02/03 07:54:18;;;;;;;5.78;3.72;;;;;;;6.70;100.00;100166.94;5008755;28;20476;-52
2024/02/03 07:56:44;;;;;;;6.82;3.90;;;;;;;6.69;100.00;100159.88;5010208;28;20040;-52
2024/02/03 07:59:09;;;;;;;8.30;3.65;;;;;;;6.74;100.00;100172.88;5011951;28;20033;-52
2024/02/03 08:01:34;;;;;;;6.40;3.55;;;;;;;6.50;100.00;100160.75;5015748;28;20026;-52
2024/02/03 08:04:01;;;;;;;7.78;3.97;;;;;;;6.63;100.00;100171.22;5009534;28;20068;-52
2024/02/03 08:06:26;;;;;;;6.93;3.63;;;;;;;6.62;100.00;100180.25;5012148;28;20045;-52
2024/02/03 08:08:52;;;;;;;8.20;3.38;;;;;;;6.66;100.00;100173.59;5011151;28;20103;-52
2024/02/03 08:11:17;;;;;;;9.45;3.63;;;;;;;6.66;100.00;100184.34;5012873;28;20026;-52
2024/02/03 08:13:43;;;;;;;7.00;3.65;;;;;;;6.68;100.00;100176.13;5011788;28;20426;-52
2024/02/03 08:16:08;;;;;;;7.95;3.35;;;;;;;6.69;100.00;100170.63;5013519;28;20040;-52
2024/02/03 08:18:34;;;;;;;7.28;3.70;;;;;;;6.74;100.00;100173.72;5014461;28;20469;-52
2024/02/03 08:21:00;;;;;;;6.57;3.13;;;;;;;6.73;100.00;100181.91;5013340;28;20445;-52
2024/02/03 08:23:25;;;;;;;6.32;3.17;;;;;;;6.78;100.00;100175.13;5011976;28;20092;-52
2024/02/03 08:25:51;;;;;;;5.82;3.28;;;;;;;6.74;100.00;100176.41;5013292;28;20412;-52
2024/02/03 08:28:17;;;;;;;5.70;2.95;;;;;;;6.70;100.00;100190.28;5011527;28;20088;-52
2024/02/03 08:30:42;;;;;;;7.72;3.55;;;;;;;6.84;100.00;100179.09;5014080;28;20088;-52
2024/02/03 08:33:08;;;;;;;6.35;2.80;;;;;;;6.78;100.00;100185.88;5018938;28;20026;-53
2024/02/03 08:35:33;;;;;;;6.15;3.03;;;;;;;6.89;100.00;100182.19;5012057;28;20057;-53
2024/02/03 08:37:58;;;;;;;4.72;2.80;;;;;;;6.87;100.00;100183.34;5008853;28;20121;-53
2024/02/03 08:40:24;;;;;;;5.82;2.45;;;;;;;6.87;100.00;100186.88;5014272;28;20026;-51
2024/02/03 08:42:49;;;;;;;4.00;2.28;;;;;;;6.96;100.00;100182.44;5012428;28;20417;-51
2024/02/03 08:45:15;;;;;;;3.28;1.90;;;;;;;6.96;100.00;100182.44;5009001;28;20037;-50
2024/02/03 08:47:41;;;;;;;4.25;1.65;;;;;;;6.97;100.00;100186.84;5008768;28;20369;-50
2024/02/03 08:50:07;;;;;;;4.78;2.67;;;;;;;6.92;100.00;100184.59;5010772;28;20087;-52
2024/02/03 08:52:32;;;;;;;4.57;2.30;;;;;;;6.99;100.00;100188.38;5014032;28;20041;-52
2024/02/03 08:55:00;;;;;;;3.25;1.90;;;;;;;6.98;100.00;100185.84;5013356;28;20021;-52
2024/02/03 08:57:25;;;;;;;4.07;2.00;;;;;;;6.99;100.00;100193.75;5007505;28;20030;-52
2024/02/03 08:59:51;;;;;;;3.92;1.77;;;;;;;6.94;100.00;100188.00;5012692;28;20075;-51
2024/02/03 09:02:16;;;;;;;2.63;1.63;;;;;;;6.97;100.00;100189.53;5010650;28;20022;-52
2024/02/03 09:04:42;;;;;;;2.92;1.98;;;;;;;6.98;100.00;100183.16;5012262;28;20021;-53
2024/02/03 09:07:07;;;;;;;4.93;2.15;;;;;;;7.00;100.00;100187.38;5008614;28;22280;-53
2024/02/03 09:09:33;;;;;;;4.03;1.63;;;;;;;7.05;100.00;100180.69;5012714;28;20026;-53
2024/02/03 09:11:58;;;;;;;2.30;1.67;;;;;;;7.02;100.00;100182.72;5007985;28;20026;-53
2024/02/03 09:14:24;;;;;;;3.78;1.55;;;;;;;6.94;100.00;100173.66;5013458;28;20492;-53
2024/02/03 09:16:51;;;;;;;4.43;1.85;;;;;;;7.14;100.00;100178.00;5006611;28;20033;-53
2024/02/03 09:19:16;;;;;;;4.25;1.70;;;;;;;7.18;100.00;100170.47;5010753;28;20079;-53
2024/02/03 09:21:42;;;;;;;2.75;1.65;;;;;;;7.22;100.00;100172.72;5010764;28;20101;-52
2024/02/03 09:24:08;;;;;;;2.80;1.67;;;;;;;7.46;100.00;100171.31;5012368;28;20022;-52
2024/02/03 09:26:37;;;;;;;3.80;1.30;;;;;;;7.47;100.00;100154.19;5009545;28;20466;-52
2024/02/03 09:29:03;;;;;;;3.08;1.52;;;;;;;7.46;100.00;100144.41;5011538;28;20588;-52
2024/02/03 09:31:28;;;;;;;4.72;1.23;;;;;;;7.35;100.00;100141.91;5011661;28;20116;-52
2024/02/03 09:33:54;;;;;;;3.92;1.40;;;;;;;7.51;100.00;100147.50;5015036;28;20030;-52
2024/02/03 09:36:19;;;;;;;3.08;1.10;;;;;;;8.15;100.00;100136.69;5012335;28;20122;-56
2024/02/03 09:38:45;;;;;;;1.95;0.95;;;;;;;8.91;100.00;100130.72;5010282;28;20047;-56
2024/02/03 09:41:10;;;;;;;0.85;0.70;;;;;;;9.47;100.00;100106.81;5012986;28;20045;-56
2024/02/03 09:43:36;;;;;;;3.25;1.17;;;;;;;9.76;100.00;100120.75;5012654;28;20041;-56
2024/02/03 09:46:02;;;;;;;1.63;0.85;;;;;;;9.25;100.00;100101.00;5010450;28;20026;-58
2024/02/03 09:48:29;;;;;;;1.98;1.02;;;;;;;9.88;100.00;100108.59;5005810;28;20033;-57
2024/02/03 09:50:54;;;;;;;1.67;0.88;;;;;;;10.20;100.00;100101.53;5012454;28;20029;-59
2024/02/03 09:53:21;;;;;;;1.17;0.73;;;;;;;9.81;100.00;100109.44;5015731;28;20088;-58
2024/02/03 09:55:46;;;;;;;3.28;0.90;;;;;;;10.06;100.00;100104.88;5012818;28;20029;-56
2024/02/03 09:58:12;;;;;;;0.80;0.55;;;;;;;10.14;100.00;100098.63;5011023;28;20048;-57
2024/02/03 10:00:37;;;;;;;2.30;0.52;;;;;;;9.82;100.00;100090.38;5055581;22;20060;-76
2024/02/03 10:03:03;;;;;;;1.55;0.60;;;;;;;9.80;100.00;100086.97;5057034;28;20025;-76
2024/02/03 10:05:30;;;;;;;1.02;0.40;;;;;;;9.96;100.00;100090.72;5054452;28;20320;-76
2024/02/03 10:08:03;;;;;;;2.08;0.60;;;;;;;10.39;100.00;100100.34;5051093;28;20320;-75
2024/02/03 10:10:30;;;;;;;0.70;0.50;;;;;;;10.15;100.00;100098.47;5049776;28;20092;-76
2024/02/03 10:13:08;;;;;;;0.50;0.45;;;;;;;9.85;100.00;100108.06;5056328;28;20475;-75
2024/02/03 10:15:35;;;;;;;0.90;0.60;;;;;;;10.34;100.00;100082.97;5052838;28;20287;-78
2024/02/03 10:18:00;;;;;;;1.20;0.73;;;;;;;10.44;100.00;100072.81;5056827;28;20024;-81
2024/02/03 10:20:26;;;;;;;1.17;0.60;;;;;;;10.58;100.00;100073.94;5059014;28;20048;-75
2024/02/03 10:22:52;;;;;;;2.45;0.73;;;;;;;10.24;100.00;100065.03;5059804;28;20325;-75
2024/02/03 10:25:21;;;;;;;0.90;0.50;;;;;;;10.65;100.00;100075.81;5053932;28;20029;-75
2024/02/03 10:27:46;;;;;;;1.38;0.60;;;;;;;10.70;100.00;100086.13;5057010;28;20035;-75
2024/02/03 10:30:19;;;;;;;1.73;0.70;;;;;;;10.14;100.00;100088.69;5048423;28;20032;-74
2024/02/03 10:32:46;;;;;;;2.15;0.90;;;;;;;10.05;100.00;100076.16;5054448;28;20025;-75
2024/02/03 10:35:12;;;;;;;2.58;1.55;;;;;;;9.68;100.00;100087.47;5063641;28;20016;-80
2024/02/03 10:37:39;;;;;;;3.85;1.85;;;;;;;9.45;100.00;100093.47;5062547;28;20320;-82
2024/02/03 10:40:04;;;;;;;2.67;1.30;;;;;;;9.21;100.00;100086.13;5064357;28;20017;-85
2024/02/03 10:42:34;;;;;;;8.02;2.58;;;;;;;9.32;100.00;100079.59;5064935;28;20024;-84
2024/02/03 10:45:03;;;;;;;3.05;1.75;;;;;;;9.07;100.00;100076.81;5058845;28;20039;-87
2024/02/03 10:47:29;;;;;;;2.97;1.60;;;;;;;9.53;100.00;100085.38;5063161;28;20040;-77
2024/02/03 10:49:55;;;;;;;2.75;1.63;;;;;;;9.50;100.00;100092.97;5060801;28;20036;-85
2024/02/03 10:52:22;;;;;;;2.42;1.60;;;;;;;9.54;100.00;100078.16;5063095;28;20042;-77
2024/02/03 10:54:54;;;;;;;2.88;1.90;;;;;;;9.26;100.00;100062.19;5062510;28;20044;-79
2024/02/03 10:57:20;;;;;;;2.70;1.83;;;;;;;9.37;100.00;100091.59;5055618;28;20032;-79
2024/02/03 10:59:46;;;;;;;4.50;2.65;;;;;;;9.54;100.00;100083.56;5053942;28;20025;-80
2024/02/03 11:02:18;;;;;;;3.70;2.15;;;;;;;9.28;100.00;100084.47;5057807;28;20025;-79
2024/02/03 11:04:47;;;;;;;5.70;1.88;;;;;;;9.32;100.00;100085.81;5054190;28;20084;-79
2024/02/03 11:07:22;;;;;;;;;;;;;;;9.27;100.00;100081.94;5064078;28;20024;-82
2024/02/03 11:09:57;;;;;;;2.85;1.45;;;;;;;9.39;100.00;100072.53;5056117;28;19913;-79
2024/02/03 11:12:31;;;;;;;3.08;1.63;;;;;;;9.46;100.00;100068.16;5054281;28;20029;-80
2024/02/03 11:14:56;;;;;;;3.50;1.30;;;;;;;9.76;100.00;100074.78;5059605;28;20057;-79
2024/02/03 11:17:22;;;;;;;2.45;1.15;;;;;;;9.31;100.00;100054.44;5064060;28;20035;-80
2024/02/03 11:19:47;;;;;;;2.38;1.48;;;;;;;9.58;100.00;100068.69;5056745;28;20025;-80
2024/02/03 11:22:17;;;;;;;2.05;1.33;;;;;;;9.82;100.00;100074.16;5062301;28;20312;-78
2024/02/03 11:24:43;;;;;;;1.73;0.85;;;;;;;9.41;100.00;100044.34;5055858;28;20147;-79
2024/02/03 11:27:08;;;;;;;1.50;0.90;;;;;;;9.29;100.00;100045.66;5057087;28;20021;-79
2024/02/03 11:29:37;;;;;;;1.88;0.80;;;;;;;9.40;100.00;100052.59;5061560;28;20025;-79
2024/02/03 11:32:07;;;;;;;1.13;0.52;;;;;;;9.53;100.00;100052.13;5052490;28;20305;-79
2024/02/03 11:34:35;;;;;;;4.88;0.68;;;;;;;9.57;100.00;100056.19;5057571;28;20029;-80
2024/02/03 11:37:00;;;;;;;0.98;0.50;;;;;;;9.28;100.00;100018.81;5058239;28;20017;-81
2024/02/03 11:39:36;;;;;;;0.40;0.40;;;;;;;9.40;100.00;100048.03;5060722;28;20036;-79
2024/02/03 11:42:09;;;;;;;1.02;0.65;;;;;;;9.37;100.00;100055.63;5078021;28;20035;-81
2024/02/03 11:44:59;;;;;;;1.17;0.60;;;;;;;9.08;100.00;100061.44;5061142;28;20112;-82
2024/02/03 11:47:25;;;;;;;0.82;0.45;;;;;;;9.23;100.00;100054.41;5051859;28;20021;-80
2024/02/03 11:49:51;;;;;;;0.60;0.40;;;;;;;9.29;100.00;100066.41;5059729;28;20017;-80
2024/02/03 11:52:16;;;;;;;1.80;0.50;;;;;;;8.69;100.00;100032.25;5061736;28;20236;-81
2024/02/03 11:54:42;;;;;;;0.75;0.45;;;;;;;8.75;100.00;100053.19;5055803;28;20057;-80
2024/02/03 11:57:08;;;;;;;1.65;0.50;;;;;;;8.97;100.00;100057.19;5057823;28;20029;-79
2024/02/03 11:59:33;;;;;;;1.88;0.43;;;;;;;8.92;100.00;100046.88;5062913;28;20116;-80
2024/02/03 12:01:59;;;;;;;1.00;0.68;;;;;;;8.93;100.00;100042.31;5055272;28;20147;-81
2024/02/03 12:04:27;;;;;;;1.30;0.65;;;;;;;9.03;100.00;100066.50;5051849;28;20058;-81
2024/02/03 12:06:54;;;;;;;1.27;0.88;;;;;;;9.28;100.00;100062.03;5057552;28;20212;-76
2024/02/03 12:09:20;;;;;;;1.27;0.60;;;;;;;8.92;100.00;100071.16;5069628;28;20025;-82